Time;durP1;ratioP1;P1;durP2;ratioP2;P2;SDS_P1;SDS_P2;PMS_P1;PMS_P2;Temp;Humidity;BMP_temperature;BMP_pressure;BME280_temperature;BME280_humidity;BME280_pressure;Samples;Min_cycle;Max_cycle;Signal;HPM_P1;HPM_P2
2023/10/18 00:01:39;;;;;;;3.60;1.52;;;;;;;4.29;87.67;98249.09;5078247;27;20110;-68
2023/10/18 00:04:04;;;;;;;2.03;1.63;;;;;;;4.37;87.06;98259.16;5062167;28;20108;-69
2023/10/18 00:06:29;;;;;;;2.72;1.40;;;;;;;4.38;87.92;98245.03;5076011;28;20458;-69
2023/10/18 00:09:32;;;;;;;3.13;1.20;;;;;;;4.42;87.35;98248.28;5057773;28;20059;-69
2023/10/18 00:11:44;;;;;;;20.33;2.45;;;;;;;4.42;86.86;98248.28;5067593;27;20641;-70
2023/10/18 00:14:10;;;;;;;2.92;1.52;;;;;;;4.42;85.73;98251.75;5076305;28;20402;-69
2023/10/18 00:16:35;;;;;;;2.88;1.60;;;;;;;4.40;85.44;98252.84;5057677;28;20130;-71
2023/10/18 00:18:59;;;;;;;3.53;2.05;;;;;;;4.34;86.63;98256.72;5091850;27;20125;-70
2023/10/18 00:21:24;;;;;;;3.28;1.13;;;;;;;4.36;85.30;98253.03;5074440;27;20039;-69
2023/10/18 00:23:49;;;;;;;2.47;1.65;;;;;;;4.41;84.92;98255.34;5043446;28;20199;-70
2023/10/18 00:26:13;;;;;;;1.10;0.98;;;;;;;4.42;85.08;98266.75;5058445;28;20122;-68
2023/10/18 00:28:43;;;;;;;1.77;1.40;;;;;;;4.52;85.27;98262.50;5061758;27;20061;-68
2023/10/18 00:31:16;;;;;;;1.88;0.98;;;;;;;4.48;84.72;98267.19;5077353;27;20113;-71
2023/10/18 00:33:41;;;;;;;4.95;1.38;;;;;;;4.42;84.78;98256.19;5077004;27;20498;-68
2023/10/18 00:36:10;;;;;;;4.55;2.08;;;;;;;4.54;84.70;98265.91;5081499;27;20050;-69
2023/10/18 00:38:36;;;;;;;2.55;1.55;;;;;;;4.54;84.64;98261.47;5077464;27;20050;-71
2023/10/18 00:41:05;;;;;;;4.03;1.52;;;;;;;4.53;83.87;98261.56;5075476;27;20040;-70
2023/10/18 00:43:31;;;;;;;0.80;0.75;;;;;;;4.55;84.42;98260.53;5066315;28;20138;-70
2023/10/18 00:45:57;;;;;;;2.28;1.58;;;;;;;4.42;83.36;98257.03;5083664;27;20038;-69
2023/10/18 00:48:28;;;;;;;1.77;1.20;;;;;;;4.51;84.25;98261.69;5083405;27;20047;-69
2023/10/18 00:50:55;;;;;;;3.88;2.17;;;;;;;4.51;83.43;98271.41;5093268;27;20092;-69
2023/10/18 00:53:22;;;;;;;3.85;1.30;;;;;;;4.59;83.55;98269.94;5089929;27;20034;-70
2023/10/18 00:55:52;;;;;;;1.02;0.70;;;;;;;4.57;83.59;98263.06;5071913;28;20409;-69
2023/10/18 00:58:19;;;;;;;1.65;1.27;;;;;;;4.64;83.31;98277.50;5058610;28;20130;-68
2023/10/18 01:00:44;;;;;;;1.90;0.82;;;;;;;4.59;83.43;98264.66;5090290;27;20039;-72
2023/10/18 01:03:12;;;;;;;1.77;1.15;;;;;;;4.66;83.64;98270.34;5061813;28;20055;-72
2023/10/18 01:05:59;;;;;;;1.95;1.65;;;;;;;4.67;82.69;98264.09;5081413;28;20184;-69
2023/10/18 01:08:24;;;;;;;2.60;1.20;;;;;;;4.69;83.47;98265.69;5099061;27;20047;-71
2023/10/18 01:10:57;;;;;;;5.72;1.45;;;;;;;4.67;82.79;98275.50;5101870;27;20039;-69
2023/10/18 01:13:22;;;;;;;2.05;1.45;;;;;;;4.70;82.70;98277.09;5071507;28;20435;-69
2023/10/18 01:15:49;;;;;;;1.38;1.00;;;;;;;4.73;82.29;98279.53;5080607;28;20039;-70
2023/10/18 01:18:14;;;;;;;2.05;1.20;;;;;;;4.67;82.45;98270.22;5110121;28;20026;-69
2023/10/18 01:20:40;;;;;;;1.08;0.82;;;;;;;4.77;82.73;98272.22;5102532;28;20039;-67
2023/10/18 01:23:07;;;;;;;2.38;1.05;;;;;;;4.75;83.38;98286.38;5096066;28;20047;-68
2023/10/18 01:25:34;;;;;;;1.77;1.13;;;;;;;4.77;82.92;98285.44;5083980;28;20050;-69
2023/10/18 01:27:58;;;;;;;1.92;1.02;;;;;;;4.79;81.57;98283.53;5074906;28;20039;-70
2023/10/18 01:30:25;;;;;;;2.78;1.38;;;;;;;4.75;82.65;98272.34;5056833;28;20075;-69
2023/10/18 01:32:51;;;;;;;2.03;1.17;;;;;;;4.85;82.36;98277.84;5075074;28;20143;-70
2023/10/18 01:35:15;;;;;;;2.40;1.25;;;;;;;4.88;82.30;98280.25;5057318;28;20059;-68
2023/10/18 01:37:43;;;;;;;3.88;2.22;;;;;;;4.84;81.73;98292.00;5074957;28;20039;-68
2023/10/18 01:42:58;;;;;;;1.67;1.55;;;;;;;4.83;81.63;98288.50;5074498;28;20039;-71
2023/10/18 01:45:26;;;;;;;2.58;1.13;;;;;;;4.89;82.58;98293.34;5044170;28;20035;-72
2023/10/18 01:47:51;;;;;;;3.03;1.50;;;;;;;4.92;82.80;98294.94;5056052;28;20070;-71
2023/10/18 01:50:18;;;;;;;2.47;1.55;;;;;;;4.94;81.88;98287.75;5075110;28;20075;-73
2023/10/18 01:52:46;;;;;;;7.38;2.38;;;;;;;4.90;82.31;98294.19;5035784;28;20086;-73
2023/10/18 01:55:12;;;;;;;2.28;1.27;;;;;;;4.81;81.72;98289.56;5036250;28;20044;-72
2023/10/18 01:57:37;;;;;;;1.13;0.95;;;;;;;4.80;82.44;98296.63;5036408;28;20096;-71
2023/10/18 02:00:03;;;;;;;4.88;1.67;;;;;;;4.78;81.87;98295.88;5035837;28;20491;-73
2023/10/18 02:02:36;;;;;;;3.05;1.60;;;;;;;4.70;82.87;98304.34;5052502;28;20122;-71
2023/10/18 02:05:05;;;;;;;2.80;1.42;;;;;;;4.71;81.38;98297.28;5018827;28;20036;-70
2023/10/18 02:07:29;;;;;;;3.30;2.05;;;;;;;4.68;81.39;98300.13;5052002;28;20055;-71
2023/10/18 02:09:57;;;;;;;4.05;1.35;;;;;;;4.62;82.07;98308.47;5034953;28;20056;-71
2023/10/18 02:12:22;;;;;;;5.93;1.92;;;;;;;4.66;83.01;98307.28;5018943;28;20059;-71
2023/10/18 02:14:51;;;;;;;1.95;1.33;;;;;;;4.63;82.58;98307.50;5039529;28;20502;-70
2023/10/18 02:17:18;;;;;;;3.70;1.40;;;;;;;4.46;82.46;98299.91;5012066;28;20523;-72
2023/10/18 02:19:44;;;;;;;2.67;1.10;;;;;;;4.43;82.94;98306.22;5063412;28;20027;-74
2023/10/18 02:22:09;;;;;;;3.17;1.42;;;;;;;4.40;83.54;98300.31;5079004;27;20176;-73
2023/10/18 02:24:36;;;;;;;2.00;1.42;;;;;;;4.39;83.53;98307.41;5090436;27;20046;-71
2023/10/18 02:27:01;;;;;;;3.53;1.38;;;;;;;4.37;83.68;98306.66;5098211;27;20042;-71
2023/10/18 02:29:28;;;;;;;1.70;1.30;;;;;;;4.37;83.46;98301.38;5100401;27;20045;-71
2023/10/18 02:31:57;;;;;;;1.88;1.20;;;;;;;4.35;83.49;98308.53;5114182;27;20384;-72
2023/10/18 02:34:26;;;;;;;6.80;4.03;;;;;;;4.35;84.44;98305.91;5112064;27;20043;-71
2023/10/18 02:36:52;;;;;;;2.08;1.55;;;;;;;4.28;84.54;98313.41;5067102;27;20046;-71
2023/10/18 02:39:32;;;;;;;3.92;1.65;;;;;;;4.32;83.88;98319.28;5100426;27;20408;-72
2023/10/18 02:41:57;;;;;;;7.25;1.90;;;;;;;4.34;84.58;98304.22;5106352;27;20042;-73
2023/10/18 02:44:23;;;;;;;3.05;1.75;;;;;;;4.28;85.52;98294.94;5098558;27;20065;-71
2023/10/18 02:46:55;;;;;;;3.25;2.15;;;;;;;4.37;85.05;98311.94;5104172;27;20412;-72
2023/10/18 02:49:22;;;;;;;3.22;1.75;;;;;;;4.28;84.74;98309.91;5069116;27;20034;-72
2023/10/18 02:51:47;;;;;;;2.38;1.50;;;;;;;4.20;85.27;98304.28;5062916;27;20043;-71
2023/10/18 02:54:18;;;;;;;1.80;1.42;;;;;;;4.21;85.91;98306.81;5083276;27;20039;-73
2023/10/18 02:56:50;;;;;;;1.73;1.45;;;;;;;4.14;86.79;98307.34;5084156;27;20512;-74
2023/10/18 02:59:15;;;;;;;4.57;2.13;;;;;;;4.09;87.50;98312.91;5090079;27;20133;-73
2023/10/18 03:01:43;;;;;;;2.28;1.23;;;;;;;4.08;86.47;98302.47;5061761;27;20121;-73
2023/10/18 03:04:09;;;;;;;2.78;1.95;;;;;;;4.09;86.39;98312.06;5097126;27;20038;-72
2023/10/18 03:06:34;;;;;;;2.28;1.30;;;;;;;4.05;86.60;98303.53;5082163;27;20042;-73
2023/10/18 03:09:00;;;;;;;2.83;1.58;;;;;;;4.08;88.13;98311.22;5084837;27;20051;-72
2023/10/18 03:11:27;;;;;;;2.45;1.60;;;;;;;4.10;87.61;98303.22;5093036;27;20102;-73
2023/10/18 03:13:52;;;;;;;4.25;2.13;;;;;;;4.11;87.52;98300.47;5099033;27;20034;-72
2023/10/18 03:16:27;;;;;;;1.60;1.10;;;;;;;4.17;87.48;98315.06;5062638;27;20039;-73
2023/10/18 03:18:52;;;;;;;2.47;1.70;;;;;;;4.11;87.52;98305.75;5079349;27;20062;-70
2023/10/18 03:21:22;;;;;;;2.85;1.70;;;;;;;4.03;87.23;98309.84;5113288;27;20077;-71
2023/10/18 03:23:51;;;;;;;1.40;1.27;;;;;;;4.08;88.27;98310.38;5065289;27;20125;-71
2023/10/18 03:26:21;;;;;;;1.85;1.30;;;;;;;4.13;87.47;98305.66;5118276;27;20054;-74
2023/10/18 03:28:46;;;;;;;1.10;1.08;;;;;;;4.09;86.83;98301.50;5032952;27;20039;-72
2023/10/18 03:31:29;;;;;;;2.85;1.40;;;;;;;4.04;88.42;98293.94;5107689;27;20051;-72
2023/10/18 03:34:04;;;;;;;5.85;1.33;;;;;;;4.17;87.38;98299.25;5103458;27;20046;-74
2023/10/18 03:36:32;;;;;;;1.52;1.33;;;;;;;4.20;87.34;98301.66;5101659;27;20035;-74
2023/10/18 03:39:00;;;;;;;2.60;1.70;;;;;;;4.18;87.09;98298.25;5088657;27;20037;-74
2023/10/18 03:41:25;;;;;;;1.40;1.10;;;;;;;4.18;87.56;98291.19;5097876;27;20425;-74
2023/10/18 03:43:51;;;;;;;2.03;1.42;;;;;;;4.25;86.95;98302.19;5102869;27;20118;-76
2023/10/18 03:46:19;;;;;;;3.28;1.65;;;;;;;4.24;87.55;98301.34;5062215;27;20413;-74
2023/10/18 03:49:02;;;;;;;2.90;1.60;;;;;;;4.29;86.74;98303.66;5091072;27;20088;-74
2023/10/18 03:51:29;;;;;;;3.88;1.58;;;;;;;4.29;86.29;98295.75;5092802;27;20042;-72
2023/10/18 03:53:55;;;;;;;3.08;1.65;;;;;;;4.30;87.36;98308.00;5086114;27;20035;-72
2023/10/18 03:56:21;;;;;;;2.40;1.48;;;;;;;4.26;86.58;98314.44;5118207;27;20070;-74
2023/10/18 03:59:00;;;;;;;2.20;1.60;;;;;;;4.31;87.12;98312.31;5099420;27;20153;-72
2023/10/18 04:01:26;;;;;;;3.70;1.42;;;;;;;4.25;85.53;98318.03;5086597;27;20376;-73
2023/10/18 04:03:51;;;;;;;3.03;1.05;;;;;;;4.28;85.12;98320.47;5074586;28;20120;-73
2023/10/18 04:06:27;;;;;;;3.75;1.38;;;;;;;4.28;86.22;98321.31;5074999;28;20087;-73
2023/10/18 04:08:52;;;;;;;4.90;1.77;;;;;;;4.31;85.12;98322.88;5059124;28;20052;-73
2023/10/18 04:11:24;;;;;;;2.55;1.85;;;;;;;4.26;86.09;98317.94;5057363;28;20050;-72
2023/10/18 04:13:50;;;;;;;2.00;1.50;;;;;;;4.28;85.41;98323.94;5057537;28;20134;-73
2023/10/18 04:16:17;;;;;;;2.25;1.55;;;;;;;4.34;85.03;98328.81;5074065;27;20047;-72
2023/10/18 04:18:42;;;;;;;3.78;1.63;;;;;;;4.36;85.43;98318.16;5077082;27;20592;-73
2023/10/18 04:21:14;;;;;;;5.93;1.50;;;;;;;4.42;85.73;98327.44;5094719;27;20575;-74
2023/10/18 04:23:44;;;;;;;3.33;1.75;;;;;;;4.44;85.17;98334.31;5060821;27;20142;-73
2023/10/18 04:26:15;;;;;;;2.80;1.50;;;;;;;4.46;84.97;98332.41;5094402;27;20093;-73
2023/10/18 04:28:39;;;;;;;1.83;1.67;;;;;;;4.50;85.21;98333.91;5077035;27;20503;-72
2023/10/18 04:31:08;;;;;;;5.65;1.83;;;;;;;4.56;84.64;98337.91;5061570;27;20538;-74
2023/10/18 04:33:36;;;;;;;3.80;1.75;;;;;;;4.60;83.97;98336.75;5091795;27;20116;-73
2023/10/18 04:36:11;;;;;;;2.63;1.92;;;;;;;4.58;83.65;98339.50;5086813;27;20068;-72
2023/10/18 04:38:44;;;;;;;5.45;2.58;;;;;;;4.54;84.59;98335.38;5097303;27;20058;-74
2023/10/18 04:43:47;;;;;;;4.22;2.20;;;;;;;4.51;82.86;98346.16;5100799;27;20035;-74
2023/10/18 04:51:49;;;;;;;3.40;1.73;;;;;;;4.49;83.61;98352.47;5056268;28;20044;-76
2023/10/18 04:54:15;;;;;;;3.78;1.60;;;;;;;4.56;83.71;98354.59;5019808;28;20040;-76
2023/10/18 04:56:45;;;;;;;3.08;1.70;;;;;;;4.59;83.53;98351.75;5022273;28;20059;-77
2023/10/18 04:59:25;;;;;;;2.33;1.75;;;;;;;4.66;83.31;98355.66;5055679;28;20040;-77
2023/10/18 05:04:34;;;;;;;2.15;1.83;;;;;;;4.75;82.49;98365.56;5038254;28;20043;-74
2023/10/18 05:09:41;;;;;;;2.17;1.50;;;;;;;4.81;81.89;98361.69;5053514;28;20391;-74
2023/10/18 05:14:43;;;;;;;2.90;2.10;;;;;;;4.83;82.32;98367.72;5037347;28;20128;-75
2023/10/18 05:17:13;;;;;;;3.50;2.75;;;;;;;4.84;81.53;98368.56;5054443;28;20082;-73
2023/10/18 05:19:41;;;;;;;2.75;1.80;;;;;;;4.81;81.56;98363.47;5054404;28;20083;-76
2023/10/18 05:22:05;;;;;;;3.28;1.80;;;;;;;4.88;81.58;98359.47;5055822;28;20565;-76
2023/10/18 05:24:37;;;;;;;2.75;2.05;;;;;;;4.89;80.62;98354.06;5054630;28;20646;-74
2023/10/18 05:27:04;;;;;;;3.13;1.88;;;;;;;5.00;80.74;98355.97;5038628;28;20060;-73
2023/10/18 05:29:35;;;;;;;5.15;2.03;;;;;;;5.09;80.16;98363.25;5072932;28;20046;-74
2023/10/18 05:32:06;;;;;;;2.25;1.60;;;;;;;5.17;79.88;98363.59;5082194;27;20396;-74
2023/10/18 05:34:49;;;;;;;3.35;2.08;;;;;;;5.13;79.73;98370.03;5117157;27;20038;-74
2023/10/18 05:37:14;;;;;;;4.68;2.22;;;;;;;5.14;79.55;98361.16;5117459;27;20040;-74
2023/10/18 05:40:41;;;;;;;3.38;1.92;;;;;;;5.21;79.34;98367.69;5082112;27;20121;-73
2023/10/18 05:42:35;;;;;;;9.20;3.13;;;;;;;5.22;78.65;98357.97;5119569;27;20058;-73
2023/10/18 05:45:00;;;;;;;4.68;2.10;;;;;;;5.28;78.26;98374.25;5102004;28;20142;-73
2023/10/18 05:47:29;;;;;;;1.85;1.48;;;;;;;5.31;78.35;98370.53;5099497;27;20042;-75
2023/10/18 05:49:59;;;;;;;2.88;1.55;;;;;;;5.35;78.87;98385.22;5085390;27;20718;-73
2023/10/18 05:52:36;;;;;;;5.75;2.05;;;;;;;5.38;78.09;98380.56;5101258;27;20050;-73
2023/10/18 05:55:01;;;;;;;4.72;2.17;;;;;;;5.44;78.18;98376.63;5101089;27;20091;-74
2023/10/18 05:57:26;;;;;;;2.08;1.88;;;;;;;5.47;78.47;98394.94;5101003;27;20121;-74
2023/10/18 05:59:50;;;;;;;3.65;1.85;;;;;;;5.50;78.43;98380.66;5082365;27;20126;-75
2023/10/18 06:02:25;;;;;;;4.32;1.95;;;;;;;5.59;77.78;98380.00;5082547;27;20050;-73
2023/10/18 06:04:51;;;;;;;3.05;1.92;;;;;;;5.55;78.18;98375.88;5082771;27;20047;-73
2023/10/18 06:07:18;;;;;;;4.85;2.80;;;;;;;5.61;77.53;98380.75;5101857;27;20046;-74
2023/10/18 06:12:14;;;;;;;3.10;2.20;;;;;;;5.81;76.69;98377.50;5098399;27;20049;-73
2023/10/18 06:14:45;;;;;;;2.53;1.90;;;;;;;5.93;76.33;98384.59;5103954;27;20098;-73
2023/10/18 06:17:19;;;;;;;4.15;2.13;;;;;;;6.03;75.78;98375.03;5111403;27;20035;-72
2023/10/18 06:19:45;;;;;;;2.72;2.03;;;;;;;6.15;75.44;98371.47;5133925;27;20038;-73
2023/10/18 06:22:17;;;;;;;3.90;2.25;;;;;;;5.98;74.93;98371.84;5125770;27;20043;-74
2023/10/18 06:24:45;;;;;;;2.75;2.03;;;;;;;6.06;74.55;98371.31;5123611;27;20044;-72
2023/10/18 06:27:15;;;;;;;1.98;1.80;;;;;;;6.04;74.69;98375.88;5116364;27;20046;-73
2023/10/18 06:29:43;;;;;;;5.28;2.22;;;;;;;6.13;73.75;98381.31;5109994;27;20050;-73
2023/10/18 06:32:12;;;;;;;3.40;1.50;;;;;;;6.24;73.22;98384.97;5099593;27;20185;-73
2023/10/18 06:34:37;;;;;;;2.75;2.00;;;;;;;6.25;73.26;98379.56;5100961;27;20046;-73
2023/10/18 06:37:07;;;;;;;5.88;2.15;;;;;;;6.23;73.08;98375.34;5100430;27;20039;-75
2023/10/18 06:39:35;;;;;;;4.95;2.58;;;;;;;6.28;72.45;98370.56;5101574;27;20083;-78
2023/10/18 06:42:06;;;;;;;3.45;1.98;;;;;;;6.28;72.26;98374.06;5101930;27;20123;-78
2023/10/18 06:44:33;;;;;;;2.83;1.90;;;;;;;6.47;71.65;98362.94;5102207;27;20382;-77
2023/10/18 06:46:59;;;;;;;3.67;1.90;;;;;;;6.62;71.81;98364.44;5102716;27;20035;-75
2023/10/18 06:49:26;;;;;;;5.35;1.90;;;;;;;6.56;70.21;98375.47;5101686;27;20039;-76
2023/10/18 06:51:50;;;;;;;4.32;1.70;;;;;;;6.70;70.02;98372.63;5102042;27;20039;-75
2023/10/18 06:54:23;;;;;;;7.38;2.25;;;;;;;6.75;69.93;98374.94;5102120;27;20051;-76
2023/10/18 06:56:48;;;;;;;3.58;2.25;;;;;;;6.76;68.78;98377.47;5110868;27;20504;-77
2023/10/18 06:59:13;;;;;;;5.47;2.22;;;;;;;6.78;68.05;98383.47;5118180;27;20054;-77
2023/10/18 07:04:27;;;;;;;3.35;1.70;;;;;;;7.13;68.61;98387.88;5065751;27;20039;-77
2023/10/18 07:06:53;;;;;;;3.10;1.85;;;;;;;7.35;68.70;98382.59;5082513;27;20061;-79
2023/10/18 07:09:36;;;;;;;3.40;2.03;;;;;;;7.46;67.61;98382.59;5101000;27;20067;-78
2023/10/18 07:12:04;;;;;;;4.07;2.80;;;;;;;7.51;67.02;98380.44;5083845;27;20042;-76
2023/10/18 07:14:32;;;;;;;5.05;2.40;;;;;;;7.39;65.85;98375.25;5099842;27;20038;-77
2023/10/18 07:17:00;;;;;;;5.72;2.00;;;;;;;7.25;66.62;98371.03;5100792;27;20035;-76
2023/10/18 07:19:47;;;;;;;2.75;2.13;;;;;;;7.22;66.20;98369.47;5101213;27;20057;-78
2023/10/18 07:22:17;;;;;;;3.97;1.80;;;;;;;7.32;66.60;98380.22;5104907;27;20044;-76
2023/10/18 07:24:42;;;;;;;5.07;2.55;;;;;;;7.38;66.86;98378.88;5104084;27;20043;-76
2023/10/18 07:27:10;;;;;;;2.63;2.08;;;;;;;7.44;66.50;98373.94;5100165;27;20039;-75
2023/10/18 07:29:45;;;;;;;2.83;2.15;;;;;;;7.64;66.23;98370.56;5080651;27;20047;-75
2023/10/18 07:32:12;;;;;;;5.95;2.40;;;;;;;7.84;65.37;98373.41;5063891;27;20031;-75
2023/10/18 07:34:37;;;;;;;4.80;2.42;;;;;;;7.88;64.39;98377.50;5080742;27;20057;-75
2023/10/18 07:37:17;;;;;;;3.78;2.13;;;;;;;7.88;65.53;98382.81;5099026;27;20038;-75
2023/10/18 07:39:42;;;;;;;2.75;1.98;;;;;;;7.74;65.21;98388.38;5063524;27;20039;-75
2023/10/18 07:42:07;;;;;;;1.85;1.65;;;;;;;7.69;64.67;98372.81;5097982;27;20039;-75
2023/10/18 07:44:32;;;;;;;3.65;2.20;;;;;;;7.83;63.83;98392.94;5099351;27;20043;-76
2023/10/18 07:46:57;;;;;;;2.10;1.73;;;;;;;7.85;63.82;98380.41;5097713;27;20035;-74
2023/10/18 07:49:21;;;;;;;4.15;1.95;;;;;;;7.89;64.88;98384.50;5099008;27;20481;-78
2023/10/18 07:51:49;;;;;;;2.60;2.10;;;;;;;7.89;64.83;98389.81;5079389;27;20091;-76
2023/10/18 07:54:22;;;;;;;6.18;2.10;;;;;;;7.60;63.32;98392.13;5097166;27;20413;-76
2023/10/18 07:56:51;;;;;;;2.78;2.10;;;;;;;7.39;63.82;98393.81;5078304;27;20404;-75
2023/10/18 07:59:32;;;;;;;3.20;1.65;;;;;;;7.21;64.05;98388.16;5113297;27;20047;-77
2023/10/18 08:04:50;;;;;;;1.63;1.52;;;;;;;6.90;64.65;98395.78;5118563;27;20050;-78
2023/10/18 08:07:20;;;;;;;1.75;1.50;;;;;;;6.89;64.63;98399.41;5118969;27;20053;-79
2023/10/18 08:09:51;;;;;;;3.65;1.92;;;;;;;6.87;65.24;98393.41;5117583;27;20050;-78
2023/10/18 08:14:50;;;;;;;4.40;1.67;;;;;;;7.15;65.91;98409.81;5082554;27;20397;-78
2023/10/18 08:17:30;;;;;;;4.13;2.17;;;;;;;7.13;65.39;98401.13;5066723;27;20079;-75
2023/10/18 08:19:58;;;;;;;4.22;1.73;;;;;;;7.08;65.43;98408.59;5118269;27;20047;-74
2023/10/18 08:22:22;;;;;;;2.55;2.13;;;;;;;6.95;66.10;98398.09;5117909;27;20043;-74
2023/10/18 08:24:50;;;;;;;2.85;1.63;;;;;;;6.98;65.94;98405.81;5118359;27;20095;-73
2023/10/18 08:27:14;;;;;;;2.17;1.98;;;;;;;6.94;65.38;98404.34;5099213;27;20045;-74
2023/10/18 08:29:39;;;;;;;2.95;1.38;;;;;;;6.83;66.14;98405.19;5099522;27;20038;-73
2023/10/18 08:32:17;;;;;;;2.20;1.88;;;;;;;6.84;66.28;98406.88;5118251;27;20129;-75
2023/10/18 08:34:43;;;;;;;1.92;1.73;;;;;;;6.84;66.22;98409.53;5118096;27;20042;-75
2023/10/18 08:37:11;;;;;;;9.75;2.05;;;;;;;6.75;66.82;98404.94;5099608;27;20042;-74
2023/10/18 08:39:39;;;;;;;3.97;2.40;;;;;;;6.63;66.88;98397.91;5099911;27;20050;-74
2023/10/18 08:42:13;;;;;;;1.45;1.17;;;;;;;6.67;67.23;98403.78;5118944;27;20519;-75
2023/10/18 08:44:41;;;;;;;1.83;1.35;;;;;;;6.67;67.49;98402.00;5083148;27;20125;-76
2023/10/18 08:49:43;;;;;;;2.85;2.42;;;;;;;6.53;67.73;98397.75;5118200;27;20094;-75
2023/10/18 08:52:08;;;;;;;;;;;;;;;6.77;68.06;98407.47;5112840;27;20043;-78
2023/10/18 08:54:34;;;;;;;4.05;1.55;;;;;;;6.64;68.00;98398.75;5079670;27;20013;-76
2023/10/18 08:57:00;;;;;;;3.95;2.03;;;;;;;6.56;68.42;98397.50;5097427;27;20501;-76
2023/10/18 08:59:25;;;;;;;7.43;1.83;;;;;;;6.56;67.80;98386.06;5097676;27;20390;-76
2023/10/18 09:04:55;;;;;;;2.33;1.52;;;;;;;6.60;68.85;98395.47;5021244;28;20130;-73
2023/10/18 09:07:22;;;;;;;6.43;2.05;;;;;;;6.54;68.82;98388.00;5036491;28;20044;-73
2023/10/18 09:09:56;;;;;;;2.28;1.88;;;;;;;6.74;69.19;98390.00;5052899;28;20058;-75
2023/10/18 09:12:33;;;;;;;4.90;2.08;;;;;;;7.03;68.90;98378.97;5053246;28;20124;-72
2023/10/18 09:14:59;;;;;;;7.13;2.03;;;;;;;7.46;67.37;98387.91;5036143;28;20487;-73
2023/10/18 09:17:24;;;;;;;8.32;2.38;;;;;;;7.61;66.25;98392.00;5036227;28;20067;-75
2023/10/18 09:19:53;;;;;;;2.75;1.98;;;;;;;7.52;66.13;98376.81;5053137;28;20040;-74
2023/10/18 09:22:18;;;;;;;3.63;2.30;;;;;;;7.39;65.98;98375.25;5053840;28;20139;-75
2023/10/18 09:24:43;;;;;;;2.17;1.95;;;;;;;7.37;66.58;98382.47;5019735;28;20042;-75
2023/10/18 09:27:08;;;;;;;5.63;2.03;;;;;;;7.32;66.97;98379.38;5036613;28;20051;-74
2023/10/18 09:29:34;;;;;;;2.47;1.83;;;;;;;7.15;67.01;98378.00;5034349;28;20044;-77
2023/10/18 09:32:32;;;;;;;3.45;2.40;;;;;;;7.05;66.44;98382.34;5018415;28;20048;-76
2023/10/18 09:35:00;;;;;;;6.25;2.65;;;;;;;6.86;66.28;98373.16;5001513;28;20896;-77
2023/10/18 09:37:29;;;;;;;8.65;2.50;;;;;;;6.92;67.16;98377.97;5034896;28;20453;-78
2023/10/18 09:39:56;;;;;;;3.03;1.70;;;;;;;6.94;66.98;98380.53;5036081;28;20416;-76
2023/10/18 09:42:21;;;;;;;2.55;2.15;;;;;;;7.01;67.67;98381.72;5096756;28;20054;-75
2023/10/18 09:44:45;;;;;;;5.20;2.55;;;;;;;7.07;67.95;98372.47;5077556;28;20569;-73
2023/10/18 09:47:10;;;;;;;5.35;2.53;;;;;;;7.10;68.26;98359.00;5095961;28;20043;-75
2023/10/18 09:49:40;;;;;;;5.13;2.97;;;;;;;7.16;67.77;98375.25;5095454;28;20051;-73
2023/10/18 09:52:07;;;;;;;4.10;1.73;;;;;;;7.15;67.68;98370.06;5095143;28;20042;-71
2023/10/18 09:54:36;;;;;;;7.85;3.38;;;;;;;7.38;68.29;98376.22;5076960;28;20065;-74
2023/10/18 09:57:02;;;;;;;3.95;2.13;;;;;;;7.54;66.89;98374.91;5076983;27;20878;-72
2023/10/18 09:59:30;;;;;;;3.63;2.30;;;;;;;7.67;66.62;98376.59;5115935;27;20097;-72
2023/10/18 10:02:00;;;;;;;3.03;1.83;;;;;;;7.81;66.12;98371.00;5097405;27;20052;-74
2023/10/18 10:04:32;;;;;;;4.38;2.72;;;;;;;7.85;66.43;98373.28;5116788;27;20500;-76
2023/10/18 10:07:27;;;;;;;3.40;2.08;;;;;;;7.97;65.68;98376.75;5116333;27;20365;-76
2023/10/18 10:09:46;;;;;;;2.53;1.92;;;;;;;7.77;65.97;98362.47;5082052;27;20054;-77
2023/10/18 10:12:12;;;;;;;3.40;2.72;;;;;;;7.65;65.89;98366.09;5102876;27;20501;-75
2023/10/18 10:14:37;;;;;;;3.97;2.85;;;;;;;7.69;66.12;98366.66;5100210;27;20041;-76
2023/10/18 10:17:08;;;;;;;3.85;2.28;;;;;;;7.60;66.18;98374.41;5115802;27;20035;-76
2023/10/18 10:19:41;;;;;;;4.15;2.70;;;;;;;7.54;66.20;98374.06;5098194;27;20412;-77
2023/10/18 10:22:08;;;;;;;4.35;2.35;;;;;;;7.58;66.29;98381.63;5097672;27;20053;-77
2023/10/18 10:24:42;;;;;;;3.33;2.70;;;;;;;7.57;66.68;98376.44;5095603;27;20030;-75
2023/10/18 10:27:28;;;;;;;3.25;2.42;;;;;;;7.60;67.15;98386.81;5100064;27;20132;-75
2023/10/18 10:32:45;;;;;;;3.20;2.90;;;;;;;7.46;66.81;98369.34;5101866;27;20351;-75
2023/10/18 10:35:15;;;;;;;2.88;1.90;;;;;;;7.38;66.60;98376.22;5091839;27;20035;-76
2023/10/18 10:37:51;;;;;;;3.72;2.85;;;;;;;7.24;67.17;98375.50;5074826;27;20062;-75
2023/10/18 10:43:03;;;;;;;3.88;2.83;;;;;;;7.04;68.16;98384.16;5102488;27;20042;-73
2023/10/18 10:45:38;;;;;;;4.95;3.08;;;;;;;6.97;68.19;98376.78;5111211;27;20546;-76
2023/10/18 10:50:57;;;;;;;6.15;2.97;;;;;;;7.12;68.41;98383.53;5103224;27;19919;-75
2023/10/18 10:53:32;;;;;;;5.05;2.42;;;;;;;7.12;68.79;98375.59;5081408;27;20122;-76
2023/10/18 10:56:01;;;;;;;3.20;2.30;;;;;;;7.12;68.54;98379.09;5081309;27;20441;-74
2023/10/18 10:58:29;;;;;;;3.10;2.72;;;;;;;7.17;68.62;98376.09;5081289;27;20047;-75
2023/10/18 11:01:02;;;;;;;5.32;2.65;;;;;;;7.28;69.42;98384.06;5081449;27;20481;-76
2023/10/18 11:03:29;;;;;;;4.25;2.33;;;;;;;7.33;68.67;98384.56;5081719;27;20058;-72
2023/10/18 11:05:53;;;;;;;4.57;2.50;;;;;;;7.28;69.11;98379.59;5091933;27;20092;-70
2023/10/18 11:08:19;;;;;;;2.83;2.30;;;;;;;7.30;68.62;98376.81;5104285;27;20030;-69
2023/10/18 11:10:44;;;;;;;2.45;2.13;;;;;;;7.05;68.25;98367.28;5081847;27;20035;-70
2023/10/18 11:13:08;;;;;;;2.30;2.03;;;;;;;7.01;68.80;98373.78;5084519;27;20047;-68
2023/10/18 11:15:36;;;;;;;3.13;2.25;;;;;;;6.93;68.55;98379.66;5102783;27;20046;-69
2023/10/18 11:18:20;;;;;;;3.63;2.42;;;;;;;6.93;68.43;98377.03;5098427;27;20046;-69
2023/10/18 11:23:29;;;;;;;3.45;2.60;;;;;;;6.83;69.24;98383.16;5111770;27;20092;-67
2023/10/18 11:25:56;;;;;;;6.10;2.47;;;;;;;6.73;70.01;98376.88;5098004;27;20623;-71
2023/10/18 11:28:28;;;;;;;2.65;2.10;;;;;;;6.83;69.58;98378.69;5108561;27;20047;-67
2023/10/18 11:30:56;;;;;;;4.47;2.53;;;;;;;6.85;69.48;98376.78;5097179;27;20044;-66
2023/10/18 11:33:32;;;;;;;3.72;2.38;;;;;;;6.86;70.06;98375.81;5102806;27;20046;-69
2023/10/18 11:35:56;;;;;;;6.95;2.30;;;;;;;6.96;69.88;98375.09;5099069;27;20039;-68
2023/10/18 11:38:22;;;;;;;1.95;1.70;;;;;;;6.86;70.18;98378.47;5109568;27;20046;-69
2023/10/18 11:40:50;;;;;;;4.43;2.72;;;;;;;6.92;70.31;98379.78;5103297;27;20035;-67
2023/10/18 11:43:25;;;;;;;3.67;2.20;;;;;;;6.88;69.96;98378.34;5115663;27;20452;-67
2023/10/18 11:46:03;;;;;;;7.30;2.00;;;;;;;6.83;70.82;98377.84;5099441;27;20327;-68
2023/10/18 11:48:36;;;;;;;5.70;3.08;;;;;;;6.85;70.92;98374.13;5116341;27;20488;-68
2023/10/18 11:51:02;;;;;;;4.00;2.67;;;;;;;6.88;71.00;98376.53;5101139;27;20092;-68
2023/10/18 11:53:27;;;;;;;4.18;2.53;;;;;;;6.81;71.42;98371.81;5099556;27;20038;-67
2023/10/18 11:55:52;;;;;;;2.72;2.10;;;;;;;6.77;71.82;98365.91;5100082;27;20035;-67
2023/10/18 11:58:18;;;;;;;2.60;2.30;;;;;;;6.77;71.67;98368.53;5097080;27;20039;-68
2023/10/18 12:00:47;;;;;;;2.88;2.25;;;;;;;6.83;71.74;98369.91;5097157;27;20050;-67
2023/10/18 12:03:12;;;;;;;2.97;2.10;;;;;;;6.88;71.93;98365.91;5100630;27;20382;-66
2023/10/18 12:05:36;;;;;;;3.00;2.40;;;;;;;6.91;72.15;98365.69;5096799;27;20413;-67
2023/10/18 12:08:05;;;;;;;3.65;2.15;;;;;;;6.91;71.84;98365.69;5098855;27;20431;-69
2023/10/18 12:10:36;;;;;;;2.08;1.90;;;;;;;6.77;72.51;98351.84;5100624;27;20050;-69
2023/10/18 12:13:06;;;;;;;2.08;1.88;;;;;;;6.77;72.72;98357.13;5089441;27;20042;-67
2023/10/18 12:15:31;;;;;;;2.40;2.00;;;;;;;6.65;72.80;98353.63;5123149;27;20042;-69
2023/10/18 12:17:56;;;;;;;2.38;1.60;;;;;;;6.68;73.51;98353.38;5124685;27;20100;-70
2023/10/18 12:20:25;;;;;;;4.60;1.55;;;;;;;6.71;73.72;98353.13;5105277;27;20039;-69
2023/10/18 12:22:50;;;;;;;3.08;1.75;;;;;;;6.78;74.32;98364.94;5112380;27;20038;-69
2023/10/18 12:25:15;;;;;;;2.45;2.25;;;;;;;6.77;74.35;98363.25;5095918;27;20042;-69
2023/10/18 12:27:50;;;;;;;2.80;1.73;;;;;;;6.77;74.52;98367.72;5096645;27;20031;-69
2023/10/18 12:30:38;;;;;;;3.85;1.70;;;;;;;6.74;73.79;98368.81;5097840;27;20043;-69
2023/10/18 12:33:06;;;;;;;2.05;1.42;;;;;;;6.69;74.22;98370.94;5101690;27;20067;-69
2023/10/18 12:35:32;;;;;;;2.30;1.85;;;;;;;6.67;74.29;98356.97;5079652;27;20129;-70